sensor_id;sensor_type;location;lat;lon;timestamp;P1;durP1;ratioP1;P2;durP2;ratioP2
57023;SDS011;42916;54.346;18.562;2023-05-10T00:00:54;5.80;;;4.00;;
57023;SDS011;42916;54.346;18.562;2023-05-10T00:03:21;8.70;;;5.10;;
57023;SDS011;42916;54.346;18.562;2023-05-10T00:05:47;6.70;;;4.30;;
57023;SDS011;42916;54.346;18.562;2023-05-10T00:08:14;9.60;;;4.60;;
57023;SDS011;42916;54.346;18.562;2023-05-10T00:10:41;6.90;;;4.80;;
57023;SDS011;42916;54.346;18.562;2023-05-10T00:13:07;7.40;;;4.60;;
57023;SDS011;42916;54.346;18.562;2023-05-10T00:15:34;9.40;;;4.60;;
57023;SDS011;42916;54.346;18.562;2023-05-10T00:18:01;10.00;;;4.40;;
57023;SDS011;42916;54.346;18.562;2023-05-10T00:20:28;8.20;;;4.70;;
57023;SDS011;42916;54.346;18.562;2023-05-10T00:22:54;11.10;;;4.60;;
57023;SDS011;42916;54.346;18.562;2023-05-10T00:25:21;10.80;;;4.90;;
57023;SDS011;42916;54.346;18.562;2023-05-10T00:27:48;10.60;;;4.80;;
57023;SDS011;42916;54.346;18.562;2023-05-10T00:30:15;6.30;;;4.20;;
57023;SDS011;42916;54.346;18.562;2023-05-10T00:32:42;11.00;;;4.80;;
57023;SDS011;42916;54.346;18.562;2023-05-10T00:35:09;8.60;;;4.50;;
57023;SDS011;42916;54.346;18.562;2023-05-10T00:37:36;7.30;;;4.40;;
57023;SDS011;42916;54.346;18.562;2023-05-10T00:40:03;7.50;;;4.50;;
57023;SDS011;42916;54.346;18.562;2023-05-10T00:42:32;8.50;;;4.70;;
57023;SDS011;42916;54.346;18.562;2023-05-10T00:44:59;8.30;;;5.00;;
57023;SDS011;42916;54.346;18.562;2023-05-10T00:47:26;10.30;;;5.00;;
57023;SDS011;42916;54.346;18.562;2023-05-10T00:49:53;7.20;;;4.80;;
57023;SDS011;42916;54.346;18.562;2023-05-10T00:52:22;11.90;;;4.60;;
57023;SDS011;42916;54.346;18.562;2023-05-10T00:54:50;8.90;;;4.50;;
57023;SDS011;42916;54.346;18.562;2023-05-10T00:57:18;10.20;;;5.20;;
57023;SDS011;42916;54.346;18.562;2023-05-10T00:59:45;12.10;;;4.70;;
57023;SDS011;42916;54.346;18.562;2023-05-10T01:02:13;8.10;;;4.90;;
57023;SDS011;42916;54.346;18.562;2023-05-10T01:04:40;8.80;;;5.10;;
57023;SDS011;42916;54.346;18.562;2023-05-10T01:07:07;12.10;;;5.00;;
57023;SDS011;42916;54.346;18.562;2023-05-10T01:09:34;7.20;;;4.40;;
57023;SDS011;42916;54.346;18.562;2023-05-10T01:12:01;8.60;;;4.50;;
57023;SDS011;42916;54.346;18.562;2023-05-10T01:14:29;8.10;;;4.60;;
57023;SDS011;42916;54.346;18.562;2023-05-10T01:16:57;7.70;;;5.10;;
57023;SDS011;42916;54.346;18.562;2023-05-10T01:19:24;7.40;;;4.80;;
57023;SDS011;42916;54.346;18.562;2023-05-10T01:21:55;6.80;;;4.80;;
57023;SDS011;42916;54.346;18.562;2023-05-10T01:35:58;8.10;;;4.80;;
57023;SDS011;42916;54.346;18.562;2023-05-10T01:38:48;10.40;;;5.70;;
57023;SDS011;42916;54.346;18.562;2023-05-10T01:44:02;11.80;;;5.00;;
57023;SDS011;42916;54.346;18.562;2023-05-10T01:46:48;11.30;;;5.40;;
57023;SDS011;42916;54.346;18.562;2023-05-10T01:49:23;8.00;;;4.90;;
57023;SDS011;42916;54.346;18.562;2023-05-10T01:51:53;14.00;;;5.20;;
57023;SDS011;42916;54.346;18.562;2023-05-10T01:54:28;8.10;;;4.80;;
57023;SDS011;42916;54.346;18.562;2023-05-10T01:56:56;10.40;;;5.20;;
57023;SDS011;42916;54.346;18.562;2023-05-10T01:59:30;7.50;;;4.70;;
57023;SDS011;42916;54.346;18.562;2023-05-10T02:02:02;9.10;;;5.50;;
57023;SDS011;42916;54.346;18.562;2023-05-10T02:04:31;7.80;;;5.10;;
57023;SDS011;42916;54.346;18.562;2023-05-10T02:07:04;9.40;;;5.50;;
57023;SDS011;42916;54.346;18.562;2023-05-10T02:09:33;11.60;;;5.80;;
57023;SDS011;42916;54.346;18.562;2023-05-10T02:12:01;8.50;;;5.10;;
57023;SDS011;42916;54.346;18.562;2023-05-10T02:14:34;9.40;;;4.90;;
57023;SDS011;42916;54.346;18.562;2023-05-10T02:17:04;11.50;;;5.50;;
57023;SDS011;42916;54.346;18.562;2023-05-10T02:19:34;8.50;;;5.30;;
57023;SDS011;42916;54.346;18.562;2023-05-10T02:22:03;8.90;;;5.60;;
57023;SDS011;42916;54.346;18.562;2023-05-10T02:24:32;10.30;;;5.80;;
57023;SDS011;42916;54.346;18.562;2023-05-10T02:27:01;9.50;;;5.30;;
57023;SDS011;42916;54.346;18.562;2023-05-10T02:29:29;9.90;;;5.50;;
57023;SDS011;42916;54.346;18.562;2023-05-10T02:31:58;10.00;;;5.50;;
57023;SDS011;42916;54.346;18.562;2023-05-10T02:34:26;8.10;;;5.90;;
57023;SDS011;42916;54.346;18.562;2023-05-10T02:36:54;7.10;;;5.60;;
57023;SDS011;42916;54.346;18.562;2023-05-10T02:39:22;9.30;;;5.40;;
57023;SDS011;42916;54.346;18.562;2023-05-10T02:41:51;10.30;;;5.70;;
57023;SDS011;42916;54.346;18.562;2023-05-10T02:44:19;7.10;;;5.40;;
57023;SDS011;42916;54.346;18.562;2023-05-10T02:46:48;9.70;;;5.20;;
57023;SDS011;42916;54.346;18.562;2023-05-10T02:49:16;10.00;;;5.90;;
57023;SDS011;42916;54.346;18.562;2023-05-10T02:51:47;11.00;;;5.60;;
57023;SDS011;42916;54.346;18.562;2023-05-10T02:54:23;11.00;;;6.00;;
57023;SDS011;42916;54.346;18.562;2023-05-10T02:56:55;7.80;;;5.60;;
57023;SDS011;42916;54.346;18.562;2023-05-10T02:59:24;13.20;;;6.50;;
57023;SDS011;42916;54.346;18.562;2023-05-10T03:01:50;7.90;;;5.80;;
57023;SDS011;42916;54.346;18.562;2023-05-10T03:04:18;9.20;;;5.60;;
57023;SDS011;42916;54.346;18.562;2023-05-10T03:06:45;12.10;;;6.20;;
57023;SDS011;42916;54.346;18.562;2023-05-10T03:09:12;10.20;;;5.60;;
57023;SDS011;42916;54.346;18.562;2023-05-10T03:17:23;9.70;;;6.00;;
57023;SDS011;42916;54.346;18.562;2023-05-10T03:19:57;9.70;;;6.40;;
57023;SDS011;42916;54.346;18.562;2023-05-10T03:22:38;11.00;;;6.30;;
57023;SDS011;42916;54.346;18.562;2023-05-10T03:25:11;10.60;;;5.90;;
57023;SDS011;42916;54.346;18.562;2023-05-10T03:27:40;11.20;;;6.30;;
57023;SDS011;42916;54.346;18.562;2023-05-10T03:30:10;9.70;;;5.90;;
57023;SDS011;42916;54.346;18.562;2023-05-10T03:32:38;10.50;;;6.10;;
57023;SDS011;42916;54.346;18.562;2023-05-10T03:35:08;11.80;;;7.00;;
57023;SDS011;42916;54.346;18.562;2023-05-10T03:37:36;9.80;;;6.00;;
57023;SDS011;42916;54.346;18.562;2023-05-10T03:40:03;10.40;;;5.60;;
57023;SDS011;42916;54.346;18.562;2023-05-10T03:42:31;9.40;;;6.10;;
57023;SDS011;42916;54.346;18.562;2023-05-10T03:44:58;12.50;;;5.80;;
57023;SDS011;42916;54.346;18.562;2023-05-10T03:47:25;9.50;;;6.60;;
57023;SDS011;42916;54.346;18.562;2023-05-10T03:49:52;8.40;;;5.60;;
57023;SDS011;42916;54.346;18.562;2023-05-10T03:52:19;9.10;;;5.90;;
57023;SDS011;42916;54.346;18.562;2023-05-10T03:54:45;8.50;;;5.20;;
57023;SDS011;42916;54.346;18.562;2023-05-10T03:57:12;10.70;;;5.70;;
57023;SDS011;42916;54.346;18.562;2023-05-10T03:59:39;12.50;;;6.20;;
57023;SDS011;42916;54.346;18.562;2023-05-10T04:02:06;8.40;;;5.60;;
57023;SDS011;42916;54.346;18.562;2023-05-10T04:04:33;9.70;;;6.00;;
57023;SDS011;42916;54.346;18.562;2023-05-10T04:06:59;9.20;;;5.70;;
57023;SDS011;42916;54.346;18.562;2023-05-10T04:09:26;12.60;;;5.80;;
57023;SDS011;42916;54.346;18.562;2023-05-10T04:11:53;11.10;;;6.30;;
57023;SDS011;42916;54.346;18.562;2023-05-10T04:14:19;8.50;;;5.60;;
57023;SDS011;42916;54.346;18.562;2023-05-10T04:16:46;8.80;;;5.80;;
57023;SDS011;42916;54.346;18.562;2023-05-10T04:19:13;7.30;;;5.20;;
57023;SDS011;42916;54.346;18.562;2023-05-10T04:21:39;11.80;;;5.50;;
57023;SDS011;42916;54.346;18.562;2023-05-10T04:24:06;11.60;;;6.20;;
57023;SDS011;42916;54.346;18.562;2023-05-10T04:26:33;10.60;;;5.60;;
57023;SDS011;42916;54.346;18.562;2023-05-10T04:29:00;8.50;;;5.70;;
57023;SDS011;42916;54.346;18.562;2023-05-10T04:31:26;8.40;;;6.00;;
57023;SDS011;42916;54.346;18.562;2023-05-10T04:33:54;9.40;;;6.60;;
57023;SDS011;42916;54.346;18.562;2023-05-10T04:36:20;10.60;;;5.80;;
57023;SDS011;42916;54.346;18.562;2023-05-10T04:38:47;10.20;;;5.90;;
57023;SDS011;42916;54.346;18.562;2023-05-10T04:41:14;9.10;;;5.70;;
57023;SDS011;42916;54.346;18.562;2023-05-10T04:43:41;8.00;;;5.40;;
57023;SDS011;42916;54.346;18.562;2023-05-10T04:46:08;8.90;;;5.80;;
57023;SDS011;42916;54.346;18.562;2023-05-10T04:48:34;10.60;;;6.00;;
57023;SDS011;42916;54.346;18.562;2023-05-10T04:51:01;10.40;;;5.80;;
57023;SDS011;42916;54.346;18.562;2023-05-10T04:53:29;10.20;;;5.60;;
57023;SDS011;42916;54.346;18.562;2023-05-10T04:55:56;10.80;;;6.30;;
57023;SDS011;42916;54.346;18.562;2023-05-10T04:58:23;12.10;;;5.90;;
57023;SDS011;42916;54.346;18.562;2023-05-10T05:00:50;13.50;;;5.60;;
57023;SDS011;42916;54.346;18.562;2023-05-10T05:03:16;10.10;;;6.20;;
57023;SDS011;42916;54.346;18.562;2023-05-10T05:05:43;12.20;;;6.30;;
57023;SDS011;42916;54.346;18.562;2023-05-10T05:08:11;11.00;;;6.30;;
57023;SDS011;42916;54.346;18.562;2023-05-10T05:10:37;14.60;;;6.60;;
57023;SDS011;42916;54.346;18.562;2023-05-10T05:13:04;9.70;;;5.80;;
57023;SDS011;42916;54.346;18.562;2023-05-10T05:15:31;8.30;;;5.70;;
57023;SDS011;42916;54.346;18.562;2023-05-10T05:17:58;8.00;;;5.90;;
57023;SDS011;42916;54.346;18.562;2023-05-10T05:20:25;17.20;;;6.20;;
57023;SDS011;42916;54.346;18.562;2023-05-10T05:22:51;9.30;;;5.90;;
57023;SDS011;42916;54.346;18.562;2023-05-10T05:25:18;10.90;;;5.30;;
57023;SDS011;42916;54.346;18.562;2023-05-10T05:27:45;8.90;;;5.90;;
57023;SDS011;42916;54.346;18.562;2023-05-10T05:30:12;8.40;;;5.90;;
57023;SDS011;42916;54.346;18.562;2023-05-10T05:32:38;9.70;;;5.80;;
57023;SDS011;42916;54.346;18.562;2023-05-10T05:35:06;15.00;;;5.90;;
57023;SDS011;42916;54.346;18.562;2023-05-10T05:37:33;12.00;;;7.40;;
57023;SDS011;42916;54.346;18.562;2023-05-10T05:39:59;10.70;;;6.40;;
57023;SDS011;42916;54.346;18.562;2023-05-10T05:42:28;10.50;;;5.80;;
57023;SDS011;42916;54.346;18.562;2023-05-10T05:44:54;8.10;;;5.00;;
57023;SDS011;42916;54.346;18.562;2023-05-10T05:47:21;9.90;;;5.10;;
57023;SDS011;42916;54.346;18.562;2023-05-10T05:49:48;12.80;;;6.10;;
57023;SDS011;42916;54.346;18.562;2023-05-10T05:52:14;9.40;;;5.70;;
57023;SDS011;42916;54.346;18.562;2023-05-10T05:54:41;10.30;;;6.00;;
57023;SDS011;42916;54.346;18.562;2023-05-10T05:57:08;10.50;;;6.00;;
57023;SDS011;42916;54.346;18.562;2023-05-10T05:59:35;8.60;;;5.60;;
57023;SDS011;42916;54.346;18.562;2023-05-10T06:02:02;8.10;;;5.20;;
57023;SDS011;42916;54.346;18.562;2023-05-10T06:04:28;9.80;;;6.10;;
57023;SDS011;42916;54.346;18.562;2023-05-10T06:06:55;11.70;;;6.10;;
57023;SDS011;42916;54.346;18.562;2023-05-10T06:09:22;9.20;;;6.10;;
57023;SDS011;42916;54.346;18.562;2023-05-10T06:11:50;9.30;;;5.40;;
57023;SDS011;42916;54.346;18.562;2023-05-10T06:14:17;11.30;;;6.20;;
57023;SDS011;42916;54.346;18.562;2023-05-10T06:16:46;9.70;;;6.00;;
57023;SDS011;42916;54.346;18.562;2023-05-10T06:19:13;11.70;;;6.00;;
57023;SDS011;42916;54.346;18.562;2023-05-10T06:21:40;8.30;;;5.90;;
57023;SDS011;42916;54.346;18.562;2023-05-10T06:24:07;8.30;;;5.70;;
57023;SDS011;42916;54.346;18.562;2023-05-10T06:26:33;10.30;;;5.90;;
57023;SDS011;42916;54.346;18.562;2023-05-10T06:29:00;10.80;;;5.50;;
57023;SDS011;42916;54.346;18.562;2023-05-10T06:31:27;10.90;;;5.60;;
57023;SDS011;42916;54.346;18.562;2023-05-10T06:33:54;11.00;;;5.70;;
57023;SDS011;42916;54.346;18.562;2023-05-10T06:36:21;7.90;;;6.10;;
57023;SDS011;42916;54.346;18.562;2023-05-10T06:38:48;10.50;;;5.40;;
57023;SDS011;42916;54.346;18.562;2023-05-10T06:41:15;10.60;;;6.10;;
57023;SDS011;42916;54.346;18.562;2023-05-10T06:43:41;8.20;;;5.80;;
57023;SDS011;42916;54.346;18.562;2023-05-10T06:46:09;9.20;;;5.80;;
57023;SDS011;42916;54.346;18.562;2023-05-10T06:48:36;9.10;;;5.50;;
57023;SDS011;42916;54.346;18.562;2023-05-10T06:51:03;9.50;;;5.60;;
57023;SDS011;42916;54.346;18.562;2023-05-10T06:53:30;8.50;;;5.30;;
57023;SDS011;42916;54.346;18.562;2023-05-10T06:55:57;8.20;;;5.30;;
57023;SDS011;42916;54.346;18.562;2023-05-10T06:58:23;8.50;;;5.50;;
57023;SDS011;42916;54.346;18.562;2023-05-10T07:00:50;9.40;;;5.30;;
57023;SDS011;42916;54.346;18.562;2023-05-10T07:03:17;6.10;;;4.50;;
57023;SDS011;42916;54.346;18.562;2023-05-10T07:05:43;10.50;;;4.90;;
57023;SDS011;42916;54.346;18.562;2023-05-10T07:08:10;6.80;;;4.70;;
57023;SDS011;42916;54.346;18.562;2023-05-10T07:10:37;8.40;;;4.70;;
57023;SDS011;42916;54.346;18.562;2023-05-10T07:13:04;7.10;;;4.10;;
57023;SDS011;42916;54.346;18.562;2023-05-10T07:15:30;9.00;;;4.50;;
57023;SDS011;42916;54.346;18.562;2023-05-10T07:17:58;8.00;;;4.30;;
57023;SDS011;42916;54.346;18.562;2023-05-10T07:20:24;8.90;;;4.70;;
57023;SDS011;42916;54.346;18.562;2023-05-10T07:22:51;8.00;;;4.80;;
57023;SDS011;42916;54.346;18.562;2023-05-10T07:25:18;10.80;;;4.60;;
57023;SDS011;42916;54.346;18.562;2023-05-10T07:27:44;11.20;;;4.70;;
57023;SDS011;42916;54.346;18.562;2023-05-10T07:30:11;7.40;;;4.50;;
57023;SDS011;42916;54.346;18.562;2023-05-10T07:32:39;8.30;;;4.60;;
57023;SDS011;42916;54.346;18.562;2023-05-10T07:35:08;7.30;;;3.90;;
57023;SDS011;42916;54.346;18.562;2023-05-10T07:37:35;6.20;;;3.80;;
57023;SDS011;42916;54.346;18.562;2023-05-10T07:40:02;7.40;;;3.70;;
57023;SDS011;42916;54.346;18.562;2023-05-10T07:42:29;5.80;;;3.90;;
57023;SDS011;42916;54.346;18.562;2023-05-10T07:44:55;6.30;;;3.30;;
57023;SDS011;42916;54.346;18.562;2023-05-10T07:47:22;7.70;;;4.10;;
57023;SDS011;42916;54.346;18.562;2023-05-10T07:49:49;8.00;;;3.70;;
57023;SDS011;42916;54.346;18.562;2023-05-10T07:52:16;8.00;;;4.30;;
57023;SDS011;42916;54.346;18.562;2023-05-10T07:54:43;5.40;;;3.80;;
57023;SDS011;42916;54.346;18.562;2023-05-10T07:57:10;7.20;;;3.30;;
57023;SDS011;42916;54.346;18.562;2023-05-10T07:59:37;5.90;;;3.20;;
57023;SDS011;42916;54.346;18.562;2023-05-10T08:02:04;6.20;;;3.20;;
57023;SDS011;42916;54.346;18.562;2023-05-10T08:04:31;8.10;;;3.70;;
57023;SDS011;42916;54.346;18.562;2023-05-10T08:06:57;7.40;;;3.50;;
57023;SDS011;42916;54.346;18.562;2023-05-10T08:09:24;6.30;;;3.20;;
57023;SDS011;42916;54.346;18.562;2023-05-10T08:11:51;10.00;;;3.00;;
57023;SDS011;42916;54.346;18.562;2023-05-10T08:14:17;10.50;;;3.90;;
57023;SDS011;42916;54.346;18.562;2023-05-10T08:16:44;7.70;;;3.10;;
57023;SDS011;42916;54.346;18.562;2023-05-10T08:19:11;12.30;;;3.50;;
57023;SDS011;42916;54.346;18.562;2023-05-10T08:21:38;6.80;;;3.50;;
57023;SDS011;42916;54.346;18.562;2023-05-10T08:24:06;11.70;;;4.00;;
57023;SDS011;42916;54.346;18.562;2023-05-10T08:26:33;7.60;;;3.60;;
57023;SDS011;42916;54.346;18.562;2023-05-10T08:29:00;5.80;;;3.10;;
57023;SDS011;42916;54.346;18.562;2023-05-10T08:31:26;4.60;;;3.20;;
57023;SDS011;42916;54.346;18.562;2023-05-10T08:33:53;7.20;;;3.40;;
57023;SDS011;42916;54.346;18.562;2023-05-10T08:36:20;8.80;;;3.60;;
57023;SDS011;42916;54.346;18.562;2023-05-10T08:38:49;6.70;;;2.90;;
57023;SDS011;42916;54.346;18.562;2023-05-10T08:41:19;6.70;;;3.60;;
57023;SDS011;42916;54.346;18.562;2023-05-10T08:43:56;6.90;;;3.50;;
57023;SDS011;42916;54.346;18.562;2023-05-10T08:46:23;4.10;;;3.10;;
57023;SDS011;42916;54.346;18.562;2023-05-10T08:48:50;9.20;;;3.00;;
57023;SDS011;42916;54.346;18.562;2023-05-10T08:51:19;7.70;;;3.00;;
57023;SDS011;42916;54.346;18.562;2023-05-10T08:53:48;7.40;;;2.90;;
57023;SDS011;42916;54.346;18.562;2023-05-10T08:56:16;6.50;;;3.00;;
57023;SDS011;42916;54.346;18.562;2023-05-10T08:58:44;5.20;;;2.80;;
57023;SDS011;42916;54.346;18.562;2023-05-10T09:01:11;5.30;;;2.50;;
57023;SDS011;42916;54.346;18.562;2023-05-10T09:03:39;4.60;;;2.80;;
57023;SDS011;42916;54.346;18.562;2023-05-10T09:06:07;11.80;;;3.40;;
57023;SDS011;42916;54.346;18.562;2023-05-10T09:08:34;9.40;;;3.40;;
57023;SDS011;42916;54.346;18.562;2023-05-10T09:11:02;10.80;;;3.30;;
57023;SDS011;42916;54.346;18.562;2023-05-10T09:13:29;9.40;;;2.90;;
57023;SDS011;42916;54.346;18.562;2023-05-10T09:15:58;6.30;;;2.80;;
57023;SDS011;42916;54.346;18.562;2023-05-10T09:18:25;7.60;;;3.00;;
57023;SDS011;42916;54.346;18.562;2023-05-10T09:20:52;8.80;;;3.10;;
57023;SDS011;42916;54.346;18.562;2023-05-10T09:23:19;13.80;;;3.40;;
57023;SDS011;42916;54.346;18.562;2023-05-10T09:25:46;13.10;;;3.10;;
57023;SDS011;42916;54.346;18.562;2023-05-10T09:28:13;6.90;;;2.70;;
57023;SDS011;42916;54.346;18.562;2023-05-10T09:30:39;4.80;;;2.90;;
57023;SDS011;42916;54.346;18.562;2023-05-10T09:33:06;9.30;;;2.70;;
57023;SDS011;42916;54.346;18.562;2023-05-10T09:35:34;9.20;;;3.10;;
57023;SDS011;42916;54.346;18.562;2023-05-10T09:38:02;8.70;;;3.20;;
57023;SDS011;42916;54.346;18.562;2023-05-10T09:40:30;12.30;;;3.40;;
57023;SDS011;42916;54.346;18.562;2023-05-10T09:43:02;21.60;;;11.20;;
57023;SDS011;42916;54.346;18.562;2023-05-10T09:45:33;13.40;;;3.30;;
57023;SDS011;42916;54.346;18.562;2023-05-10T09:48:02;5.90;;;3.00;;
57023;SDS011;42916;54.346;18.562;2023-05-10T09:50:29;6.40;;;3.50;;
57023;SDS011;42916;54.346;18.562;2023-05-10T09:52:58;7.70;;;3.20;;
57023;SDS011;42916;54.346;18.562;2023-05-10T09:58:02;6.20;;;3.00;;
57023;SDS011;42916;54.346;18.562;2023-05-10T10:00:34;8.40;;;3.20;;
57023;SDS011;42916;54.346;18.562;2023-05-10T10:03:05;11.40;;;3.50;;
57023;SDS011;42916;54.346;18.562;2023-05-10T10:05:33;10.20;;;2.80;;
57023;SDS011;42916;54.346;18.562;2023-05-10T10:08:04;5.90;;;3.10;;
57023;SDS011;42916;54.346;18.562;2023-05-10T10:10:32;5.40;;;2.70;;
57023;SDS011;42916;54.346;18.562;2023-05-10T10:12:59;6.80;;;2.80;;
57023;SDS011;42916;54.346;18.562;2023-05-10T10:15:27;6.20;;;2.70;;
57023;SDS011;42916;54.346;18.562;2023-05-10T10:17:54;11.70;;;4.00;;
57023;SDS011;42916;54.346;18.562;2023-05-10T10:20:21;6.80;;;3.20;;
57023;SDS011;42916;54.346;18.562;2023-05-10T10:22:49;8.10;;;2.50;;
57023;SDS011;42916;54.346;18.562;2023-05-10T10:25:16;9.50;;;2.80;;
57023;SDS011;42916;54.346;18.562;2023-05-10T10:35:38;11.00;;;2.90;;
57023;SDS011;42916;54.346;18.562;2023-05-10T10:38:07;17.90;;;2.90;;
57023;SDS011;42916;54.346;18.562;2023-05-10T10:40:34;8.40;;;3.20;;
57023;SDS011;42916;54.346;18.562;2023-05-10T10:48:36;3.20;;;2.30;;
57023;SDS011;42916;54.346;18.562;2023-05-10T10:51:03;6.10;;;2.60;;
57023;SDS011;42916;54.346;18.562;2023-05-10T10:53:30;6.60;;;3.00;;
57023;SDS011;42916;54.346;18.562;2023-05-10T10:56:07;7.40;;;2.60;;
57023;SDS011;42916;54.346;18.562;2023-05-10T10:58:39;12.20;;;2.80;;
57023;SDS011;42916;54.346;18.562;2023-05-10T11:01:19;7.90;;;2.90;;
57023;SDS011;42916;54.346;18.562;2023-05-10T11:06:32;6.70;;;2.80;;
57023;SDS011;42916;54.346;18.562;2023-05-10T11:09:11;7.10;;;2.90;;
57023;SDS011;42916;54.346;18.562;2023-05-10T11:11:48;10.30;;;2.60;;
57023;SDS011;42916;54.346;18.562;2023-05-10T11:14:20;5.40;;;2.80;;
57023;SDS011;42916;54.346;18.562;2023-05-10T11:16:48;6.90;;;2.90;;
57023;SDS011;42916;54.346;18.562;2023-05-10T11:19:15;11.20;;;2.80;;
57023;SDS011;42916;54.346;18.562;2023-05-10T11:21:47;4.80;;;2.70;;
57023;SDS011;42916;54.346;18.562;2023-05-10T11:24:19;6.90;;;2.70;;
57023;SDS011;42916;54.346;18.562;2023-05-10T11:26:53;4.50;;;2.50;;
57023;SDS011;42916;54.346;18.562;2023-05-10T11:29:20;7.60;;;3.30;;
57023;SDS011;42916;54.346;18.562;2023-05-10T11:31:47;10.90;;;2.90;;
57023;SDS011;42916;54.346;18.562;2023-05-10T11:34:28;14.50;;;3.20;;
57023;SDS011;42916;54.346;18.562;2023-05-10T11:36:56;8.90;;;2.70;;
57023;SDS011;42916;54.346;18.562;2023-05-10T11:39:27;6.20;;;3.10;;
57023;SDS011;42916;54.346;18.562;2023-05-10T11:41:55;7.20;;;2.70;;
57023;SDS011;42916;54.346;18.562;2023-05-10T11:44:22;13.40;;;3.00;;
57023;SDS011;42916;54.346;18.562;2023-05-10T11:46:49;8.20;;;2.90;;
57023;SDS011;42916;54.346;18.562;2023-05-10T11:49:16;6.10;;;2.80;;
57023;SDS011;42916;54.346;18.562;2023-05-10T11:51:44;8.90;;;3.00;;
57023;SDS011;42916;54.346;18.562;2023-05-10T11:54:11;10.00;;;3.20;;
57023;SDS011;42916;54.346;18.562;2023-05-10T11:56:38;5.00;;;2.70;;
57023;SDS011;42916;54.346;18.562;2023-05-10T11:59:06;4.50;;;2.40;;
57023;SDS011;42916;54.346;18.562;2023-05-10T12:01:34;6.50;;;2.70;;
57023;SDS011;42916;54.346;18.562;2023-05-10T12:04:01;4.30;;;2.80;;
57023;SDS011;42916;54.346;18.562;2023-05-10T12:06:29;6.80;;;2.70;;
57023;SDS011;42916;54.346;18.562;2023-05-10T12:08:58;10.60;;;3.50;;
57023;SDS011;42916;54.346;18.562;2023-05-10T12:11:26;7.20;;;3.10;;
57023;SDS011;42916;54.346;18.562;2023-05-10T12:16:23;8.30;;;3.30;;
57023;SDS011;42916;54.346;18.562;2023-05-10T12:18:52;11.90;;;2.70;;
57023;SDS011;42916;54.346;18.562;2023-05-10T12:21:20;10.50;;;2.90;;
57023;SDS011;42916;54.346;18.562;2023-05-10T12:23:52;9.40;;;3.10;;
57023;SDS011;42916;54.346;18.562;2023-05-10T12:26:23;11.10;;;3.70;;
57023;SDS011;42916;54.346;18.562;2023-05-10T12:28:53;8.40;;;2.90;;
57023;SDS011;42916;54.346;18.562;2023-05-10T12:31:20;8.00;;;3.10;;
57023;SDS011;42916;54.346;18.562;2023-05-10T12:33:47;12.30;;;2.80;;
57023;SDS011;42916;54.346;18.562;2023-05-10T12:36:15;8.20;;;2.70;;
57023;SDS011;42916;54.346;18.562;2023-05-10T12:38:44;9.60;;;2.40;;
57023;SDS011;42916;54.346;18.562;2023-05-10T12:41:16;10.60;;;2.80;;
57023;SDS011;42916;54.346;18.562;2023-05-10T12:43:44;5.90;;;2.50;;
57023;SDS011;42916;54.346;18.562;2023-05-10T12:46:12;6.20;;;2.60;;
57023;SDS011;42916;54.346;18.562;2023-05-10T12:48:43;8.60;;;2.50;;
57023;SDS011;42916;54.346;18.562;2023-05-10T12:53:41;6.40;;;2.70;;
57023;SDS011;42916;54.346;18.562;2023-05-10T12:56:09;8.20;;;3.30;;
57023;SDS011;42916;54.346;18.562;2023-05-10T12:58:35;7.70;;;2.80;;
57023;SDS011;42916;54.346;18.562;2023-05-10T13:01:02;6.80;;;2.50;;
57023;SDS011;42916;54.346;18.562;2023-05-10T13:03:30;9.50;;;2.90;;
57023;SDS011;42916;54.346;18.562;2023-05-10T13:05:57;4.50;;;2.40;;
57023;SDS011;42916;54.346;18.562;2023-05-10T13:08:24;8.00;;;2.50;;
57023;SDS011;42916;54.346;18.562;2023-05-10T13:10:51;11.90;;;2.90;;
57023;SDS011;42916;54.346;18.562;2023-05-10T13:13:18;13.30;;;2.80;;
57023;SDS011;42916;54.346;18.562;2023-05-10T13:15:48;10.20;;;2.80;;
57023;SDS011;42916;54.346;18.562;2023-05-10T13:18:15;9.70;;;2.60;;
57023;SDS011;42916;54.346;18.562;2023-05-10T13:20:43;9.30;;;2.80;;
57023;SDS011;42916;54.346;18.562;2023-05-10T13:23:10;10.20;;;2.80;;
57023;SDS011;42916;54.346;18.562;2023-05-10T13:25:37;10.20;;;2.90;;
57023;SDS011;42916;54.346;18.562;2023-05-10T13:28:04;8.00;;;2.70;;
57023;SDS011;42916;54.346;18.562;2023-05-10T13:30:32;8.30;;;2.70;;
57023;SDS011;42916;54.346;18.562;2023-05-10T13:32:58;10.20;;;3.20;;
57023;SDS011;42916;54.346;18.562;2023-05-10T13:35:25;8.00;;;2.90;;
57023;SDS011;42916;54.346;18.562;2023-05-10T13:37:52;9.30;;;3.00;;
57023;SDS011;42916;54.346;18.562;2023-05-10T13:40:23;4.20;;;2.50;;
57023;SDS011;42916;54.346;18.562;2023-05-10T13:42:49;7.10;;;2.70;;
57023;SDS011;42916;54.346;18.562;2023-05-10T13:45:16;4.60;;;2.60;;
57023;SDS011;42916;54.346;18.562;2023-05-10T13:47:43;9.30;;;2.60;;
57023;SDS011;42916;54.346;18.562;2023-05-10T13:50:10;7.50;;;3.00;;
57023;SDS011;42916;54.346;18.562;2023-05-10T13:52:37;5.00;;;2.90;;
57023;SDS011;42916;54.346;18.562;2023-05-10T13:55:04;4.90;;;2.70;;
57023;SDS011;42916;54.346;18.562;2023-05-10T13:57:31;7.70;;;2.80;;
57023;SDS011;42916;54.346;18.562;2023-05-10T13:59:58;7.30;;;2.70;;
57023;SDS011;42916;54.346;18.562;2023-05-10T14:02:25;5.30;;;2.80;;
57023;SDS011;42916;54.346;18.562;2023-05-10T14:04:53;9.60;;;3.30;;
57023;SDS011;42916;54.346;18.562;2023-05-10T14:07:20;5.40;;;2.80;;
57023;SDS011;42916;54.346;18.562;2023-05-10T14:09:48;4.40;;;2.60;;
57023;SDS011;42916;54.346;18.562;2023-05-10T14:12:14;5.30;;;2.90;;
57023;SDS011;42916;54.346;18.562;2023-05-10T14:14:41;6.90;;;2.40;;
57023;SDS011;42916;54.346;18.562;2023-05-10T14:17:08;10.40;;;2.70;;
57023;SDS011;42916;54.346;18.562;2023-05-10T14:19:35;5.60;;;2.70;;
57023;SDS011;42916;54.346;18.562;2023-05-10T14:22:02;4.40;;;2.20;;
57023;SDS011;42916;54.346;18.562;2023-05-10T14:24:29;10.70;;;2.90;;
57023;SDS011;42916;54.346;18.562;2023-05-10T14:26:56;7.50;;;2.50;;
57023;SDS011;42916;54.346;18.562;2023-05-10T14:29:23;7.90;;;2.60;;
57023;SDS011;42916;54.346;18.562;2023-05-10T14:31:50;7.70;;;2.60;;
57023;SDS011;42916;54.346;18.562;2023-05-10T14:34:17;6.60;;;2.20;;
57023;SDS011;42916;54.346;18.562;2023-05-10T14:36:44;5.10;;;2.20;;
57023;SDS011;42916;54.346;18.562;2023-05-10T14:39:11;5.70;;;2.50;;
57023;SDS011;42916;54.346;18.562;2023-05-10T14:41:39;8.20;;;2.10;;
57023;SDS011;42916;54.346;18.562;2023-05-10T14:44:10;8.10;;;2.10;;
57023;SDS011;42916;54.346;18.562;2023-05-10T14:49:04;6.10;;;2.20;;
57023;SDS011;42916;54.346;18.562;2023-05-10T14:51:31;5.10;;;2.30;;
57023;SDS011;42916;54.346;18.562;2023-05-10T14:53:58;9.10;;;2.80;;
57023;SDS011;42916;54.346;18.562;2023-05-10T14:56:25;11.00;;;2.70;;
57023;SDS011;42916;54.346;18.562;2023-05-10T14:58:53;5.60;;;2.40;;
57023;SDS011;42916;54.346;18.562;2023-05-10T15:01:20;5.80;;;2.20;;
57023;SDS011;42916;54.346;18.562;2023-05-10T15:03:47;5.50;;;2.30;;
57023;SDS011;42916;54.346;18.562;2023-05-10T15:06:14;8.60;;;2.40;;
57023;SDS011;42916;54.346;18.562;2023-05-10T15:08:42;7.50;;;1.90;;
57023;SDS011;42916;54.346;18.562;2023-05-10T15:11:09;8.90;;;2.30;;
57023;SDS011;42916;54.346;18.562;2023-05-10T15:13:36;6.90;;;2.50;;
57023;SDS011;42916;54.346;18.562;2023-05-10T15:16:03;6.30;;;2.30;;
57023;SDS011;42916;54.346;18.562;2023-05-10T15:18:30;5.60;;;2.00;;
57023;SDS011;42916;54.346;18.562;2023-05-10T15:20:57;7.30;;;2.40;;